Time;durP1;ratioP1;P1;durP2;ratioP2;P2;SDS_P1;SDS_P2;PMS_P1;PMS_P2;Temp;Humidity;BMP_temperature;BMP_pressure;BME280_temperature;BME280_humidity;BME280_pressure;Samples;Min_cycle;Max_cycle;Signal;HPM_P1;HPM_P2
2022/04/10 00:01:23;;;;;;;6.75;5.75;;;12.20;72.40;;;;;;4993507;28;20031;-53
2022/04/10 00:03:48;;;;;;;6.60;5.32;;;12.20;72.30;;;;;;4993173;28;20026;-51
2022/04/10 00:06:14;;;;;;;7.65;5.18;;;12.20;72.10;;;;;;4993270;28;20049;-63
2022/04/10 00:08:40;;;;;;;7.53;5.63;;;12.20;72.60;;;;;;4990878;28;20058;-51
2022/04/10 00:11:05;;;;;;;8.40;5.90;;;12.20;72.30;;;;;;4988455;28;20041;-62
2022/04/10 00:13:31;;;;;;;6.43;5.28;;;12.10;72.30;;;;;;4973830;28;20084;-52
2022/04/10 00:15:56;;;;;;;8.10;5.30;;;12.10;72.70;;;;;;4992597;28;20030;-61
2022/04/10 00:18:22;;;;;;;6.88;5.10;;;12.10;72.70;;;;;;4991955;28;20027;-63
2022/04/10 00:20:48;;;;;;;7.70;5.25;;;12.10;72.70;;;;;;4993155;28;20042;-63
2022/04/10 00:23:14;;;;;;;6.18;4.80;;;12.10;72.60;;;;;;4993088;28;20018;-63
2022/04/10 00:25:39;;;;;;;7.07;5.57;;;12.10;72.70;;;;;;4993029;28;20145;-61
2022/04/10 00:28:05;;;;;;;7.32;5.20;;;12.10;72.80;;;;;;4992877;28;20424;-63
2022/04/10 00:30:32;;;;;;;8.45;5.57;;;12.10;72.70;;;;;;4996477;28;20028;-63
2022/04/10 00:32:58;;;;;;;8.02;5.55;;;12.10;72.90;;;;;;4996264;28;20538;-63
2022/04/10 00:35:24;;;;;;;5.93;5.03;;;12.10;72.80;;;;;;4996560;28;20026;-63
2022/04/10 00:37:49;;;;;;;7.57;5.28;;;12.10;73.10;;;;;;4996358;28;20449;-63
2022/04/10 00:40:15;;;;;;;6.60;4.82;;;12.10;72.90;;;;;;4996206;28;20042;-53
2022/04/10 00:42:48;;;;;;;7.65;5.05;;;12.10;73.60;;;;;;4996060;28;20030;-61
2022/04/10 00:45:14;;;;;;;6.97;4.30;;;12.00;73.00;;;;;;4995919;28;20450;-52
2022/04/10 00:47:39;;;;;;;5.72;4.93;;;12.10;73.20;;;;;;4996206;28;20081;-63
2022/04/10 00:50:07;;;;;;;7.03;4.78;;;12.00;73.90;;;;;;4996132;28;20026;-63
2022/04/10 00:52:34;;;;;;;7.93;5.43;;;12.10;73.90;;;;;;4996178;28;20030;-52
2022/04/10 00:54:59;;;;;;;8.70;4.93;;;12.00;73.50;;;;;;4995977;28;20023;-62
2022/04/10 00:57:25;;;;;;;10.30;5.85;;;12.10;73.40;;;;;;4995670;28;20500;-59
2022/04/10 00:59:51;;;;;;;7.45;4.90;;;12.00;73.70;;;;;;4995813;28;20037;-52
2022/04/10 01:02:17;;;;;;;9.40;5.60;;;12.00;73.90;;;;;;4995924;28;20025;-63
2022/04/10 01:04:43;;;;;;;8.35;4.80;;;12.00;73.30;;;;;;4995842;28;20030;-59
2022/04/10 01:07:11;;;;;;;6.32;4.50;;;12.00;73.40;;;;;;4995908;28;20146;-61
2022/04/10 01:09:38;;;;;;;5.93;4.68;;;12.00;73.60;;;;;;4995780;28;20049;-55
2022/04/10 01:12:05;;;;;;;6.57;4.45;;;11.90;73.90;;;;;;4995446;28;20357;-63
2022/04/10 01:14:30;;;;;;;8.05;4.97;;;11.90;74.00;;;;;;4995747;28;20431;-63
2022/04/10 01:16:56;;;;;;;5.88;4.63;;;11.90;74.30;;;;;;4995688;28;20543;-54
2022/04/10 01:19:23;;;;;;;7.53;4.60;;;11.90;73.50;;;;;;4995211;28;20046;-64
2022/04/10 01:21:51;;;;;;;6.82;5.00;;;11.90;73.70;;;;;;4995633;28;20023;-63
2022/04/10 01:24:17;;;;;;;8.13;5.00;;;11.90;73.80;;;;;;4995390;28;20058;-60
2022/04/10 01:26:43;;;;;;;8.13;5.47;;;11.90;73.60;;;;;;4995280;28;20059;-60
2022/04/10 01:29:11;;;;;;;9.20;6.03;;;11.80;73.30;;;;;;4995354;28;20026;-55
2022/04/10 01:31:42;;;;;;;10.55;6.65;;;11.90;73.20;;;;;;4995312;28;20029;-55
2022/04/10 01:34:10;;;;;;;6.93;5.97;;;11.80;73.40;;;;;;4995283;28;20026;-60
2022/04/10 01:36:37;;;;;;;8.63;5.93;;;11.80;73.80;;;;;;4995522;28;20507;-52
2022/04/10 01:39:05;;;;;;;11.55;6.53;;;11.80;73.90;;;;;;4995138;28;20073;-50
2022/04/10 01:41:31;;;;;;;7.57;6.28;;;11.80;73.70;;;;;;4993892;28;20026;-55
2022/04/10 01:43:58;;;;;;;8.05;6.10;;;11.80;73.50;;;;;;4995425;28;20037;-56
2022/04/10 01:46:26;;;;;;;7.47;5.10;;;11.80;73.40;;;;;;4995115;28;20034;-52
2022/04/10 01:48:51;;;;;;;6.45;5.65;;;11.70;73.80;;;;;;4995183;28;20031;-63
2022/04/10 01:51:17;;;;;;;7.45;5.05;;;11.70;74.00;;;;;;4994994;28;20033;-62
2022/04/10 01:53:43;;;;;;;6.95;5.55;;;11.70;74.00;;;;;;4994847;28;20029;-50
2022/04/10 01:56:09;;;;;;;11.77;6.00;;;11.70;74.00;;;;;;4977346;28;20030;-63
2022/04/10 01:58:41;;;;;;;8.57;5.93;;;11.70;74.30;;;;;;4995139;28;20037;-54
2022/04/10 02:01:09;;;;;;;6.97;5.80;;;11.60;74.40;;;;;;4994840;28;20037;-61
2022/04/10 02:03:35;;;;;;;6.80;5.32;;;11.60;74.10;;;;;;4994923;28;20018;-51
2022/04/10 02:06:02;;;;;;;8.10;5.05;;;11.60;74.40;;;;;;4994495;28;20034;-56
2022/04/10 02:08:28;;;;;;;7.28;5.97;;;11.60;74.30;;;;;;4994835;28;20129;-59
2022/04/10 02:10:54;;;;;;;7.90;5.68;;;11.60;74.60;;;;;;4994448;28;20105;-51
2022/04/10 02:13:20;;;;;;;6.95;4.95;;;11.50;74.40;;;;;;4994632;28;20444;-63
2022/04/10 02:15:46;;;;;;;6.15;5.25;;;11.60;75.40;;;;;;4994433;28;20093;-51
2022/04/10 02:18:12;;;;;;;6.45;5.82;;;11.50;74.60;;;;;;4994300;28;20026;-62
2022/04/10 02:20:38;;;;;;;7.50;5.18;;;11.50;74.50;;;;;;4994303;28;20096;-63
2022/04/10 02:23:04;;;;;;;8.82;5.90;;;11.60;74.30;;;;;;4994588;28;20022;-62
2022/04/10 02:25:29;;;;;;;8.18;6.10;;;11.50;74.10;;;;;;4993886;28;20049;-54
2022/04/10 02:27:55;;;;;;;6.80;5.75;;;11.50;74.20;;;;;;4994549;28;20384;-62
2022/04/10 02:30:20;;;;;;;9.65;6.80;;;11.50;74.20;;;;;;4994239;28;20473;-51
2022/04/10 02:32:46;;;;;;;8.95;6.03;;;11.50;74.00;;;;;;4994190;28;20102;-52
2022/04/10 02:35:12;;;;;;;7.38;5.57;;;11.50;74.10;;;;;;4994143;28;20052;-55
2022/04/10 02:37:38;;;;;;;8.63;6.07;;;11.40;74.00;;;;;;4994095;28;20456;-49
2022/04/10 02:40:05;;;;;;;9.00;6.10;;;11.40;74.20;;;;;;4994048;28;20069;-63
2022/04/10 02:42:33;;;;;;;7.95;5.35;;;11.40;74.40;;;;;;4994014;28;20105;-62
2022/04/10 02:44:59;;;;;;;9.10;6.80;;;11.40;74.70;;;;;;4994087;28;20131;-56
2022/04/10 02:47:25;;;;;;;7.35;6.13;;;11.40;74.30;;;;;;4994168;28;20461;-62
2022/04/10 02:49:51;;;;;;;11.13;6.88;;;11.30;74.40;;;;;;4993913;28;20042;-57
2022/04/10 02:52:16;;;;;;;7.53;5.88;;;11.40;74.40;;;;;;4993362;28;20109;-60
2022/04/10 02:54:42;;;;;;;9.38;6.45;;;11.30;74.40;;;;;;4994068;28;20026;-58
2022/04/10 02:57:08;;;;;;;6.10;5.40;;;11.30;74.30;;;;;;4993786;28;20018;-63
2022/04/10 02:59:34;;;;;;;6.65;5.68;;;11.30;74.40;;;;;;4993730;28;20038;-53
2022/04/10 03:01:59;;;;;;;8.88;6.20;;;11.20;75.00;;;;;;4993792;28;20073;-50
2022/04/10 03:04:25;;;;;;;6.80;5.53;;;11.20;74.50;;;;;;4993679;28;20026;-51
2022/04/10 03:06:51;;;;;;;7.90;6.10;;;11.20;74.70;;;;;;4993503;28;20085;-54
2022/04/10 03:09:17;;;;;;;9.40;6.47;;;11.20;74.80;;;;;;4993679;28;20105;-63
2022/04/10 03:11:43;;;;;;;7.38;5.63;;;11.20;74.70;;;;;;4993639;28;20046;-58
2022/04/10 03:14:08;;;;;;;10.50;6.25;;;11.20;74.50;;;;;;4994021;28;20030;-61
2022/04/10 03:16:34;;;;;;;8.60;6.35;;;11.20;74.50;;;;;;4993335;28;20022;-63
2022/04/10 03:19:00;;;;;;;9.38;6.15;;;11.10;74.60;;;;;;4993467;28;20073;-62
2022/04/10 03:21:26;;;;;;;7.68;5.70;;;11.10;74.60;;;;;;4993253;28;20029;-64
2022/04/10 03:23:51;;;;;;;7.20;5.85;;;11.10;74.70;;;;;;4993636;28;20018;-62
2022/04/10 03:26:17;;;;;;;6.90;6.00;;;11.10;74.70;;;;;;4993748;28;20038;-62
2022/04/10 03:28:43;;;;;;;8.80;5.97;;;11.00;74.70;;;;;;4993687;28;20026;-59
2022/04/10 03:31:08;;;;;;;7.13;5.65;;;11.10;74.80;;;;;;4993689;28;20491;-61
2022/04/10 03:33:34;;;;;;;9.70;6.35;;;11.00;74.60;;;;;;4993331;28;20109;-61
2022/04/10 03:35:59;;;;;;;9.45;5.85;;;11.00;74.60;;;;;;4993228;28;20520;-63
2022/04/10 03:38:25;;;;;;;7.22;6.20;;;11.00;74.60;;;;;;4993380;28;20026;-62
2022/04/10 03:40:51;;;;;;;7.30;5.53;;;11.00;74.60;;;;;;4993587;28;20034;-56
2022/04/10 03:43:16;;;;;;;9.32;5.53;;;11.00;74.50;;;;;;4993099;28;20030;-53
2022/04/10 03:45:42;;;;;;;8.48;5.85;;;10.90;74.70;;;;;;4993434;28;20026;-63
2022/04/10 03:48:08;;;;;;;7.13;5.50;;;10.90;74.70;;;;;;4993259;28;20058;-63
2022/04/10 03:50:34;;;;;;;9.07;5.50;;;10.90;74.70;;;;;;4993369;28;20026;-64
2022/04/10 03:53:01;;;;;;;7.80;5.00;;;10.90;74.60;;;;;;4993295;28;20522;-64
2022/04/10 03:55:27;;;;;;;7.80;5.80;;;10.90;74.80;;;;;;4993246;28;20030;-60
2022/04/10 03:57:53;;;;;;;6.68;5.03;;;10.80;75.00;;;;;;4993319;28;20050;-64
2022/04/10 04:00:21;;;;;;;7.47;5.35;;;10.90;75.10;;;;;;4993321;28;20069;-64
2022/04/10 04:02:47;;;;;;;7.03;5.00;;;10.80;75.00;;;;;;4993257;28;20073;-50
2022/04/10 04:05:13;;;;;;;12.07;5.95;;;10.80;75.00;;;;;;4996638;28;20057;-63
2022/04/10 04:07:40;;;;;;;8.55;5.75;;;10.80;75.20;;;;;;4996901;28;20438;-62
2022/04/10 04:10:07;;;;;;;9.75;5.80;;;10.70;75.10;;;;;;4997150;28;20064;-59
2022/04/10 04:12:34;;;;;;;11.73;5.88;;;10.70;75.00;;;;;;4996643;28;20030;-53
2022/04/10 04:15:00;;;;;;;7.28;5.72;;;10.80;75.10;;;;;;4996915;28;20113;-58
2022/04/10 04:17:25;;;;;;;9.27;5.70;;;10.80;75.20;;;;;;4997065;28;20101;-64
2022/04/10 04:19:51;;;;;;;7.47;5.75;;;10.70;74.90;;;;;;4996312;28;20196;-62
2022/04/10 04:22:17;;;;;;;7.57;5.60;;;10.70;74.90;;;;;;4996699;28;20022;-58
2022/04/10 04:24:44;;;;;;;8.05;5.70;;;10.60;75.20;;;;;;4996537;28;20149;-61
2022/04/10 04:27:10;;;;;;;8.85;6.25;;;10.60;75.20;;;;;;4996763;28;20097;-64
2022/04/10 04:29:36;;;;;;;7.47;5.30;;;10.60;75.30;;;;;;4996593;28;20030;-61
2022/04/10 04:32:02;;;;;;;9.20;6.40;;;10.60;75.30;;;;;;4996555;28;20026;-62
2022/04/10 04:34:28;;;;;;;7.10;5.38;;;10.60;75.20;;;;;;4996008;28;20125;-62
2022/04/10 04:36:53;;;;;;;9.13;6.20;;;10.60;75.00;;;;;;4996557;28;20058;-58
2022/04/10 04:39:19;;;;;;;9.30;5.85;;;10.60;75.10;;;;;;4996190;28;20056;-53
2022/04/10 04:41:45;;;;;;;9.18;6.13;;;10.60;75.20;;;;;;4996409;28;20030;-61
2022/04/10 04:44:10;;;;;;;11.25;6.07;;;10.50;75.30;;;;;;4996167;28;20026;-64
2022/04/10 04:46:36;;;;;;;9.65;5.80;;;10.50;75.40;;;;;;4996175;28;20035;-64
2022/04/10 04:49:02;;;;;;;10.15;6.38;;;10.50;75.40;;;;;;4995974;28;20030;-63
2022/04/10 04:51:29;;;;;;;8.77;6.03;;;10.50;75.50;;;;;;4996253;28;20026;-60
2022/04/10 04:53:55;;;;;;;8.77;5.95;;;10.50;75.60;;;;;;4996105;28;20037;-61
2022/04/10 04:56:20;;;;;;;8.35;6.55;;;10.40;75.50;;;;;;4996136;28;20026;-62
2022/04/10 04:58:47;;;;;;;7.90;6.18;;;10.40;75.60;;;;;;4996020;28;20124;-62
2022/04/10 05:01:13;;;;;;;9.82;6.70;;;10.40;75.50;;;;;;4989623;28;20026;-61
2022/04/10 05:03:39;;;;;;;10.23;6.82;;;10.40;75.60;;;;;;4995333;28;20030;-55
2022/04/10 05:06:05;;;;;;;11.38;7.10;;;10.40;75.90;;;;;;4994839;28;20380;-60
2022/04/10 05:08:31;;;;;;;9.60;7.72;;;10.40;76.00;;;;;;4995253;28;20105;-63
2022/04/10 05:10:59;;;;;;;9.73;7.05;;;10.40;76.10;;;;;;4995834;28;20402;-56
2022/04/10 05:13:24;;;;;;;11.90;8.27;;;10.30;76.00;;;;;;4995975;28;20029;-58
2022/04/10 05:15:50;;;;;;;9.48;7.57;;;10.30;76.20;;;;;;4995295;28;20022;-57
2022/04/10 05:18:17;;;;;;;10.52;8.45;;;10.30;76.50;;;;;;4995670;28;20030;-64
2022/04/10 05:20:43;;;;;;;9.75;7.80;;;10.30;76.50;;;;;;4995810;28;20066;-64
2022/04/10 05:23:09;;;;;;;10.50;7.10;;;10.20;76.40;;;;;;4995799;28;20029;-62
2022/04/10 05:25:36;;;;;;;9.38;7.00;;;10.30;76.50;;;;;;4995495;28;20081;-51
2022/04/10 05:28:02;;;;;;;10.30;7.10;;;10.30;76.20;;;;;;4995681;28;20022;-64
2022/04/10 05:30:27;;;;;;;12.20;8.25;;;10.30;76.20;;;;;;4995376;28;20026;-62
2022/04/10 05:32:53;;;;;;;15.13;9.55;;;10.30;76.20;;;;;;4995343;28;20464;-64
2022/04/10 05:35:19;;;;;;;12.93;9.40;;;10.20;76.30;;;;;;4995435;28;20476;-60
2022/04/10 05:37:44;;;;;;;13.73;9.88;;;10.20;76.40;;;;;;4995507;28;20014;-54
2022/04/10 05:40:11;;;;;;;13.77;9.35;;;10.20;76.60;;;;;;4995144;28;20042;-54
2022/04/10 05:42:44;;;;;;;14.23;10.00;;;10.20;76.80;;;;;;4977774;28;20368;-60
2022/04/10 05:45:10;;;;;;;10.20;8.98;;;10.20;76.80;;;;;;4995210;28;20495;-59
2022/04/10 05:47:39;;;;;;;11.18;9.15;;;10.10;76.90;;;;;;4994717;28;20026;-64
2022/04/10 05:50:06;;;;;;;14.30;9.57;;;10.20;76.90;;;;;;4995271;28;20022;-65
2022/04/10 05:52:40;;;;;;;13.95;10.25;;;10.20;77.80;;;;;;4995187;28;20109;-63
2022/04/10 05:55:09;;;;;;;10.30;9.00;;;10.10;77.20;;;;;;4994935;28;20022;-62
2022/04/10 05:57:35;;;;;;;12.43;8.77;;;10.20;77.50;;;;;;4994831;28;20035;-54
2022/04/10 06:00:05;;;;;;;11.20;8.80;;;10.10;77.60;;;;;;4994695;28;20506;-61
2022/04/10 06:02:30;;;;;;;13.43;9.15;;;10.20;77.70;;;;;;4994739;28;20026;-63
2022/04/10 06:04:56;;;;;;;11.07;8.50;;;10.20;77.80;;;;;;4994610;28;20270;-62
2022/04/10 06:07:21;;;;;;;11.80;8.52;;;10.10;77.90;;;;;;4995053;28;20046;-64
2022/04/10 06:09:47;;;;;;;13.45;9.10;;;10.20;78.90;;;;;;4994502;28;20088;-61
2022/04/10 06:12:12;;;;;;;11.25;8.85;;;10.20;80.20;;;;;;4994559;28;20019;-62
2022/04/10 06:14:38;;;;;;;10.75;8.77;;;10.20;80.60;;;;;;4994774;28;20026;-60
2022/04/10 06:17:04;;;;;;;11.32;7.90;;;10.20;80.60;;;;;;4994057;28;20014;-63
2022/04/10 06:19:29;;;;;;;10.90;7.85;;;10.30;80.20;;;;;;4994368;28;20368;-61
2022/04/10 06:21:55;;;;;;;10.38;8.57;;;10.30;80.10;;;;;;4994263;28;20037;-64
2022/04/10 06:24:21;;;;;;;10.32;7.80;;;10.40;79.80;;;;;;4994459;28;20030;-62
2022/04/10 06:26:49;;;;;;;10.77;7.45;;;10.40;79.50;;;;;;4993371;28;20030;-63
2022/04/10 06:29:16;;;;;;;11.18;7.10;;;10.40;79.60;;;;;;4994409;28;20029;-64
2022/04/10 06:31:41;;;;;;;12.38;7.35;;;10.50;79.80;;;;;;4993949;28;20014;-64
2022/04/10 06:34:07;;;;;;;12.05;8.07;;;10.50;79.90;;;;;;4976884;28;20121;-53
2022/04/10 06:36:33;;;;;;;9.27;7.32;;;10.50;79.90;;;;;;4994240;28;20434;-64
2022/04/10 06:38:58;;;;;;;13.35;7.32;;;10.60;80.10;;;;;;4994021;28;20038;-63
2022/04/10 06:41:24;;;;;;;16.15;7.35;;;10.70;80.30;;;;;;4993921;28;20018;-61
2022/04/10 06:43:49;;;;;;;8.15;6.70;;;10.70;80.60;;;;;;4993936;28;20026;-64
2022/04/10 06:46:15;;;;;;;11.45;7.60;;;10.80;80.60;;;;;;4993736;28;20063;-64
2022/04/10 06:48:41;;;;;;;12.55;7.13;;;10.80;80.70;;;;;;4993850;28;20062;-55
2022/04/10 06:51:06;;;;;;;10.30;7.03;;;10.90;80.20;;;;;;4993745;28;20042;-61
2022/04/10 06:53:32;;;;;;;13.63;6.72;;;10.90;79.90;;;;;;4993878;28;20022;-61
2022/04/10 06:55:57;;;;;;;11.25;6.85;;;11.00;79.60;;;;;;4993628;28;20097;-56
2022/04/10 06:58:23;;;;;;;11.70;7.10;;;11.00;79.40;;;;;;4994239;28;20026;-62
2022/04/10 07:00:52;;;;;;;12.18;6.55;;;11.10;79.30;;;;;;4993430;28;20037;-55
2022/04/10 07:03:18;;;;;;;12.90;6.18;;;11.20;79.40;;;;;;4993810;28;20555;-52
2022/04/10 07:05:44;;;;;;;9.82;6.38;;;11.20;79.20;;;;;;4993752;28;20050;-53
2022/04/10 07:08:10;;;;;;;11.23;7.03;;;11.30;79.60;;;;;;4993486;28;20364;-55
2022/04/10 07:10:36;;;;;;;13.73;7.47;;;11.40;79.80;;;;;;4993557;28;20030;-61
2022/04/10 07:13:05;;;;;;;10.93;6.55;;;11.40;79.80;;;;;;4993496;28;20057;-49
2022/04/10 07:15:31;;;;;;;10.07;5.82;;;11.50;79.40;;;;;;4993325;28;20030;-53
2022/04/10 07:17:58;;;;;;;12.30;6.43;;;11.50;79.30;;;;;;4993258;28;20034;-61
2022/04/10 07:20:24;;;;;;;10.80;6.65;;;11.60;78.80;;;;;;4993290;28;20141;-59
2022/04/10 07:25:34;;;;;;;11.57;6.00;;;11.70;79.00;;;;;;4993879;28;20120;-49
2022/04/10 07:28:00;;;;;;;10.40;6.15;;;11.80;78.10;;;;;;4993134;28;20472;-62
2022/04/10 07:30:26;;;;;;;11.65;6.43;;;11.90;78.40;;;;;;4993707;28;20030;-62
2022/04/10 07:32:53;;;;;;;8.43;6.30;;;11.90;77.90;;;;;;4993153;28;20558;-58
2022/04/10 07:35:21;;;;;;;12.93;6.20;;;12.00;77.90;;;;;;4993414;28;20026;-56
2022/04/10 07:37:50;;;;;;;12.73;6.53;;;12.10;77.50;;;;;;4994858;28;20033;-62
2022/04/10 07:40:16;;;;;;;12.00;6.00;;;12.10;77.30;;;;;;4997464;28;20399;-51
2022/04/10 07:42:43;;;;;;;10.23;5.88;;;12.20;76.60;;;;;;4997072;28;20023;-62
2022/04/10 07:45:09;;;;;;;9.70;5.45;;;12.20;76.50;;;;;;4997457;28;20033;-62
2022/04/10 07:47:35;;;;;;;11.50;6.10;;;12.30;76.20;;;;;;4997400;28;20081;-62
2022/04/10 07:50:01;;;;;;;10.05;5.45;;;12.30;76.30;;;;;;4997188;28;20035;-61
2022/04/10 07:52:27;;;;;;;12.60;5.63;;;12.40;75.90;;;;;;4997162;28;20036;-57
2022/04/10 07:54:53;;;;;;;10.25;5.85;;;12.50;74.70;;;;;;4997166;28;20026;-65
2022/04/10 07:57:18;;;;;;;7.90;5.07;;;12.50;74.70;;;;;;4996920;28;20381;-59
2022/04/10 07:59:44;;;;;;;10.82;6.03;;;12.60;74.00;;;;;;4997024;28;20484;-64
2022/04/10 08:02:10;;;;;;;9.18;4.95;;;12.60;73.40;;;;;;4997109;28;20473;-61
2022/04/10 08:04:36;;;;;;;9.57;4.80;;;12.70;73.20;;;;;;4996857;28;20438;-59
2022/04/10 08:07:02;;;;;;;10.30;5.13;;;12.70;72.80;;;;;;4996958;28;20029;-61
2022/04/10 08:09:28;;;;;;;8.98;4.80;;;12.80;72.50;;;;;;4996960;28;20023;-52
2022/04/10 08:11:54;;;;;;;10.32;4.25;;;12.80;72.60;;;;;;4996755;28;20026;-59
2022/04/10 08:14:19;;;;;;;8.18;4.20;;;12.80;72.00;;;;;;4996784;28;20109;-62
2022/04/10 08:16:45;;;;;;;9.95;4.28;;;12.90;70.50;;;;;;4996816;28;20027;-62
2022/04/10 08:19:11;;;;;;;8.20;3.83;;;12.90;69.40;;;;;;4996419;28;20093;-62
2022/04/10 08:21:37;;;;;;;6.93;3.58;;;13.00;68.70;;;;;;4996648;28;20101;-60
2022/04/10 08:24:02;;;;;;;8.85;2.85;;;13.00;68.80;;;;;;4996543;28;20036;-62
2022/04/10 08:26:28;;;;;;;4.53;2.00;;;13.10;65.50;;;;;;4996492;28;20022;-63
2022/04/10 08:28:53;;;;;;;6.18;1.85;;;13.10;64.80;;;;;;4996450;28;20030;-52
2022/04/10 08:31:19;;;;;;;5.40;1.90;;;13.20;64.50;;;;;;4996633;28;20026;-51
2022/04/10 08:33:44;;;;;;;4.80;1.92;;;13.20;61.90;;;;;;4996234;28;20081;-63
2022/04/10 08:36:10;;;;;;;4.60;1.95;;;13.20;62.20;;;;;;4996552;28;20022;-62
2022/04/10 08:38:35;;;;;;;6.30;2.60;;;13.20;62.20;;;;;;4996455;28;20094;-56
2022/04/10 08:41:02;;;;;;;7.15;2.58;;;13.30;62.60;;;;;;4996066;28;20039;-63
2022/04/10 08:43:28;;;;;;;7.65;2.28;;;13.30;62.40;;;;;;4996242;28;20033;-51
2022/04/10 08:45:58;;;;;;;3.90;2.03;;;13.30;63.40;;;;;;4996326;28;20496;-60
2022/04/10 08:48:27;;;;;;;3.30;1.98;;;13.40;61.80;;;;;;4996141;28;20500;-56
2022/04/10 08:50:56;;;;;;;5.03;1.63;;;13.40;62.00;;;;;;4995494;28;20443;-49
2022/04/10 08:53:24;;;;;;;5.05;1.77;;;13.40;61.80;;;;;;4996021;28;20124;-63
2022/04/10 08:55:50;;;;;;;6.22;1.90;;;13.50;61.20;;;;;;4995840;28;20022;-53
2022/04/10 08:58:15;;;;;;;7.30;1.77;;;13.50;62.40;;;;;;4996177;28;20045;-60
2022/04/10 09:00:43;;;;;;;6.30;2.40;;;13.50;62.10;;;;;;4995977;28;20027;-62
2022/04/10 09:03:09;;;;;;;5.47;1.92;;;13.50;62.00;;;;;;4995990;28;20018;-54
2022/04/10 09:05:34;;;;;;;5.05;2.17;;;13.60;60.70;;;;;;4995968;28;20026;-55
2022/04/10 09:08:18;;;;;;;5.15;1.80;;;13.60;61.80;;;;;;4995793;28;20022;-63
2022/04/10 09:11:03;;;;;;;6.93;2.03;;;13.70;61.30;;;;;;4995541;28;20491;-52
2022/04/10 09:13:36;;;;;;;4.68;2.30;;;13.70;62.00;;;;;;4996003;28;20027;-60
2022/04/10 09:16:22;;;;;;;6.95;2.42;;;13.70;61.40;;;;;;4995425;28;20097;-62
2022/04/10 09:19:01;;;;;;;5.90;2.53;;;13.70;62.10;;;;;;4995573;28;20515;-63
2022/04/10 09:21:32;;;;;;;5.47;2.35;;;13.70;60.90;;;;;;4995686;28;20109;-51
2022/04/10 09:23:59;;;;;;;6.90;3.00;;;13.80;62.10;;;;;;4995385;28;20018;-61
2022/04/10 09:26:26;;;;;;;5.78;1.83;;;13.80;61.70;;;;;;4995541;28;20022;-52
2022/04/10 09:28:52;;;;;;;6.70;2.65;;;13.80;61.70;;;;;;4995362;28;20546;-53
2022/04/10 09:31:29;;;;;;;6.93;2.63;;;13.90;60.60;;;;;;4995383;28;20108;-60
2022/04/10 09:33:55;;;;;;;6.32;2.67;;;13.90;60.90;;;;;;4994809;28;20041;-62
2022/04/10 09:36:38;;;;;;;5.07;2.63;;;13.90;60.10;;;;;;4994915;28;20022;-60
2022/04/10 09:39:07;;;;;;;;;;;13.90;60.10;;;;;;4995465;28;20124;-61
2022/04/10 09:41:33;;;;;;;5.40;2.30;;;13.90;60.80;;;;;;4995207;28;19906;-63
2022/04/10 09:44:00;;;;;;;5.30;2.40;;;13.90;59.80;;;;;;4995078;28;20033;-63
2022/04/10 09:46:26;;;;;;;5.10;2.50;;;13.90;59.30;;;;;;4994695;28;20433;-50
2022/04/10 09:48:51;;;;;;;6.30;2.47;;;13.90;60.70;;;;;;4994189;28;20161;-62
2022/04/10 09:51:17;;;;;;;5.28;2.58;;;14.00;61.50;;;;;;4994967;28;20045;-62
2022/04/10 09:54:02;;;;;;;4.93;2.33;;;14.00;60.10;;;;;;4994687;28;20503;-63
2022/04/10 09:56:29;;;;;;;5.32;2.60;;;14.00;61.60;;;;;;4994502;28;20026;-58
2022/04/10 09:58:58;;;;;;;5.55;2.63;;;14.10;60.50;;;;;;4994506;28;20057;-64
2022/04/10 10:01:25;;;;;;;4.00;2.25;;;14.10;59.60;;;;;;4993500;28;20026;-61
2022/04/10 10:03:52;;;;;;;6.82;2.65;;;14.10;58.80;;;;;;4994942;28;20088;-62
2022/04/10 10:06:20;;;;;;;7.13;3.20;;;14.10;58.90;;;;;;4994672;28;20046;-63
2022/04/10 10:08:48;;;;;;;5.70;2.88;;;14.10;59.60;;;;;;4994467;28;20030;-63
2022/04/10 10:11:14;;;;;;;4.75;2.78;;;14.10;60.80;;;;;;4994235;28;20476;-58
2022/04/10 10:13:40;;;;;;;5.68;2.65;;;14.10;60.60;;;;;;4994509;28;20101;-62
2022/04/10 10:16:07;;;;;;;6.45;2.85;;;14.10;59.40;;;;;;4994318;28;20065;-63
2022/04/10 10:18:33;;;;;;;7.50;2.80;;;14.20;57.90;;;;;;4994402;28;20046;-63
2022/04/10 10:20:58;;;;;;;5.13;2.97;;;14.20;58.10;;;;;;4993693;28;20026;-63
2022/04/10 10:23:26;;;;;;;7.70;3.10;;;14.20;57.00;;;;;;4994241;28;20022;-63
2022/04/10 10:26:04;;;;;;;6.13;3.20;;;14.20;57.50;;;;;;4994182;28;20113;-63
2022/04/10 10:29:15;;;;;;;5.85;3.25;;;14.20;57.80;;;;;;4994625;28;20035;-63
2022/04/10 10:31:54;;;;;;;6.38;2.50;;;14.20;58.50;;;;;;4990973;28;20030;-59
2022/04/10 10:34:23;;;;;;;3.65;1.40;;;14.20;59.60;;;;;;4993961;28;20023;-56
2022/04/10 10:36:49;;;;;;;7.85;3.22;;;14.20;63.10;;;;;;4993667;28;20034;-61
2022/04/10 10:39:14;;;;;;;8.73;3.75;;;14.20;62.60;;;;;;4993317;28;20113;-50
2022/04/10 10:41:40;;;;;;;5.97;3.08;;;14.30;60.50;;;;;;4994007;28;20049;-63
2022/04/10 10:44:24;;;;;;;4.43;2.72;;;14.30;59.00;;;;;;4994025;28;20472;-63
2022/04/10 10:47:02;;;;;;;5.35;3.25;;;14.30;61.00;;;;;;4994126;28;20032;-63
2022/04/10 10:49:29;;;;;;;6.88;2.60;;;14.30;58.50;;;;;;4993995;28;20522;-55
2022/04/10 10:51:55;;;;;;;5.05;3.00;;;14.40;59.10;;;;;;4993381;28;20026;-63
2022/04/10 10:54:24;;;;;;;6.53;3.92;;;14.40;59.40;;;;;;4993797;28;20033;-59
2022/04/10 10:56:50;;;;;;;5.90;2.88;;;14.30;60.50;;;;;;4993805;28;20541;-59
2022/04/10 10:59:21;;;;;;;8.35;3.70;;;14.40;59.90;;;;;;4993734;28;20045;-63
2022/04/10 11:02:11;;;;;;;4.30;2.67;;;14.40;60.70;;;;;;4993432;28;20032;-62
2022/04/10 11:04:46;;;;;;;7.85;2.42;;;14.40;61.70;;;;;;4993949;28;20061;-62
2022/04/10 11:07:17;;;;;;;4.90;2.40;;;14.50;63.20;;;;;;4993387;28;20392;-55
2022/04/10 11:10:06;;;;;;;7.03;3.17;;;14.50;60.90;;;;;;4993814;28;20027;-61
2022/04/10 11:12:35;;;;;;;4.93;2.58;;;14.50;59.80;;;;;;4993466;28;20034;-63
2022/04/10 11:15:12;;;;;;;5.80;2.90;;;14.50;61.80;;;;;;4993651;28;20035;-59
2022/04/10 11:17:39;;;;;;;4.93;2.30;;;14.50;58.00;;;;;;4993360;28;20038;-62
2022/04/10 11:20:07;;;;;;;4.85;2.08;;;14.50;59.90;;;;;;4993219;28;20129;-63
2022/04/10 11:22:35;;;;;;;5.63;2.58;;;14.50;60.50;;;;;;4993389;28;20394;-57
2022/04/10 11:25:08;;;;;;;5.05;2.70;;;14.60;59.30;;;;;;4993546;28;20022;-60
2022/04/10 11:27:58;;;;;;;4.13;2.85;;;14.60;58.30;;;;;;4993106;28;20121;-60
2022/04/10 11:30:38;;;;;;;5.45;3.33;;;14.60;58.00;;;;;;4993275;28;20056;-51
2022/04/10 11:33:09;;;;;;;6.53;2.83;;;14.60;56.90;;;;;;4993204;28;20524;-63
2022/04/10 11:35:36;;;;;;;5.60;2.88;;;14.60;57.70;;;;;;4993413;28;20098;-63
2022/04/10 11:38:13;;;;;;;8.95;3.30;;;14.60;60.00;;;;;;4993293;28;20023;-63
2022/04/10 11:40:49;;;;;;;7.15;3.60;;;14.60;61.30;;;;;;4993363;28;20073;-63
2022/04/10 11:43:16;;;;;;;7.15;3.28;;;14.70;59.90;;;;;;4993262;28;20491;-60
2022/04/10 11:45:43;;;;;;;6.40;3.78;;;14.60;60.40;;;;;;4993322;28;20085;-62
2022/04/10 11:48:09;;;;;;;5.78;2.97;;;14.70;60.90;;;;;;4992934;28;20428;-61
2022/04/10 11:50:36;;;;;;;5.40;2.83;;;14.70;61.60;;;;;;4993303;28;20053;-60
2022/04/10 11:53:04;;;;;;;7.40;3.08;;;14.70;61.20;;;;;;4993240;28;20058;-62
2022/04/10 11:55:39;;;;;;;4.97;3.00;;;14.80;61.40;;;;;;4993376;28;20029;-60
2022/04/10 11:58:15;;;;;;;3.40;2.53;;;14.80;62.20;;;;;;4993454;28;20110;-63
2022/04/10 12:00:45;;;;;;;5.82;3.70;;;14.80;62.40;;;;;;4993435;28;20408;-63
2022/04/10 12:03:11;;;;;;;7.70;4.43;;;14.80;60.00;;;;;;4992951;28;20030;-63
2022/04/10 12:05:37;;;;;;;8.05;4.93;;;14.80;57.90;;;;;;4992987;28;20038;-63
2022/04/10 12:08:04;;;;;;;6.85;4.43;;;14.80;57.80;;;;;;4975736;28;20022;-62
2022/04/10 12:10:30;;;;;;;7.28;4.85;;;14.80;58.60;;;;;;4993220;28;20026;-63
2022/04/10 12:12:57;;;;;;;7.97;4.65;;;14.80;57.20;;;;;;4993182;28;20122;-63
2022/04/10 12:15:23;;;;;;;8.15;5.45;;;14.80;57.40;;;;;;4993144;28;20031;-63
2022/04/10 12:18:02;;;;;;;6.03;5.00;;;14.90;57.90;;;;;;4992867;28;20026;-59
2022/04/10 12:20:28;;;;;;;9.52;5.35;;;14.90;56.50;;;;;;4993077;28;20046;-63
2022/04/10 12:22:54;;;;;;;9.02;3.83;;;14.90;56.60;;;;;;4992896;28;20027;-60
2022/04/10 12:25:19;;;;;;;8.80;5.65;;;14.90;60.00;;;;;;4995020;28;20575;-63
2022/04/10 12:27:46;;;;;;;9.32;5.53;;;15.00;58.60;;;;;;4995790;28;20388;-55
2022/04/10 12:30:14;;;;;;;8.07;5.25;;;15.00;56.30;;;;;;4996502;28;20018;-62
2022/04/10 12:32:40;;;;;;;8.25;5.70;;;15.00;56.80;;;;;;4995800;28;20038;-63
2022/04/10 12:35:07;;;;;;;8.77;5.90;;;15.00;55.70;;;;;;4995884;28;20022;-62
2022/04/10 12:37:33;;;;;;;10.10;6.53;;;15.00;56.30;;;;;;4989326;28;20027;-61
2022/04/10 12:40:00;;;;;;;7.10;5.70;;;15.00;56.60;;;;;;4993093;28;20038;-63
2022/04/10 12:42:37;;;;;;;11.18;5.93;;;15.00;56.20;;;;;;4995628;28;20019;-61
2022/04/10 12:45:08;;;;;;;9.43;5.55;;;15.00;56.00;;;;;;4996109;28;20100;-57
2022/04/10 12:47:40;;;;;;;9.55;4.82;;;15.00;55.30;;;;;;4991938;28;20400;-63
2022/04/10 12:50:08;;;;;;;7.45;5.00;;;15.00;55.60;;;;;;4990938;28;20045;-57